sensor_id;sensor_type;location;lat;lon;timestamp;P1;durP1;ratioP1;P2;durP2;ratioP2
29206;SDS011;16247;50.840;4.382;2023-09-19T00:00:42;18.98;;;2.50;;
29206;SDS011;16247;50.840;4.382;2023-09-19T00:03:09;7.35;;;1.60;;
29206;SDS011;16247;50.840;4.382;2023-09-19T00:05:37;13.57;;;2.50;;
29206;SDS011;16247;50.840;4.382;2023-09-19T00:08:03;8.18;;;2.15;;
29206;SDS011;16247;50.840;4.382;2023-09-19T00:10:32;7.70;;;1.95;;
29206;SDS011;16247;50.840;4.382;2023-09-19T00:13:00;14.50;;;2.05;;
29206;SDS011;16247;50.840;4.382;2023-09-19T00:15:31;9.95;;;2.38;;
29206;SDS011;16247;50.840;4.382;2023-09-19T00:18:02;12.13;;;1.98;;
29206;SDS011;16247;50.840;4.382;2023-09-19T00:20:31;10.85;;;1.92;;
29206;SDS011;16247;50.840;4.382;2023-09-19T00:23:00;8.55;;;2.60;;
29206;SDS011;16247;50.840;4.382;2023-09-19T00:25:27;12.35;;;2.95;;
29206;SDS011;16247;50.840;4.382;2023-09-19T00:27:54;9.93;;;2.35;;
29206;SDS011;16247;50.840;4.382;2023-09-19T00:30:20;9.20;;;1.90;;
29206;SDS011;16247;50.840;4.382;2023-09-19T00:33:04;10.48;;;2.70;;
29206;SDS011;16247;50.840;4.382;2023-09-19T00:35:56;15.43;;;2.20;;
29206;SDS011;16247;50.840;4.382;2023-09-19T00:38:33;13.10;;;3.50;;
29206;SDS011;16247;50.840;4.382;2023-09-19T00:41:02;8.70;;;1.77;;
29206;SDS011;16247;50.840;4.382;2023-09-19T00:43:41;11.93;;;1.70;;
29206;SDS011;16247;50.840;4.382;2023-09-19T00:46:16;15.05;;;2.40;;
29206;SDS011;16247;50.840;4.382;2023-09-19T00:51:27;9.20;;;2.13;;
29206;SDS011;16247;50.840;4.382;2023-09-19T00:53:53;15.90;;;2.58;;
29206;SDS011;16247;50.840;4.382;2023-09-19T00:56:22;13.10;;;2.30;;
29206;SDS011;16247;50.840;4.382;2023-09-19T00:58:48;11.57;;;2.13;;
29206;SDS011;16247;50.840;4.382;2023-09-19T01:01:14;12.73;;;3.30;;
29206;SDS011;16247;50.840;4.382;2023-09-19T01:03:41;11.43;;;2.25;;
29206;SDS011;16247;50.840;4.382;2023-09-19T01:06:07;11.55;;;1.92;;
29206;SDS011;16247;50.840;4.382;2023-09-19T01:08:34;8.10;;;1.95;;
29206;SDS011;16247;50.840;4.382;2023-09-19T01:11:12;5.25;;;1.90;;
29206;SDS011;16247;50.840;4.382;2023-09-19T01:17:03;10.15;;;2.38;;
29206;SDS011;16247;50.840;4.382;2023-09-19T01:23:55;13.60;;;3.58;;
29206;SDS011;16247;50.840;4.382;2023-09-19T01:26:17;12.00;;;3.03;;
29206;SDS011;16247;50.840;4.382;2023-09-19T01:34:58;10.52;;;2.63;;
29206;SDS011;16247;50.840;4.382;2023-09-19T01:37:29;14.88;;;2.55;;
29206;SDS011;16247;50.840;4.382;2023-09-19T01:40:06;8.90;;;2.33;;
29206;SDS011;16247;50.840;4.382;2023-09-19T01:42:43;14.77;;;2.58;;
29206;SDS011;16247;50.840;4.382;2023-09-19T01:48:17;17.70;;;2.53;;
29206;SDS011;16247;50.840;4.382;2023-09-19T01:51:00;8.35;;;2.17;;
29206;SDS011;16247;50.840;4.382;2023-09-19T01:56:34;15.55;;;3.30;;
29206;SDS011;16247;50.840;4.382;2023-09-19T01:59:07;7.50;;;1.95;;
29206;SDS011;16247;50.840;4.382;2023-09-19T02:01:38;9.02;;;2.63;;
29206;SDS011;16247;50.840;4.382;2023-09-19T02:04:05;9.13;;;2.33;;
29206;SDS011;16247;50.840;4.382;2023-09-19T02:06:34;16.08;;;2.40;;
29206;SDS011;16247;50.840;4.382;2023-09-19T02:09:00;11.55;;;2.15;;
29206;SDS011;16247;50.840;4.382;2023-09-19T02:11:27;11.00;;;2.47;;
29206;SDS011;16247;50.840;4.382;2023-09-19T02:14:00;13.10;;;3.75;;
29206;SDS011;16247;50.840;4.382;2023-09-19T02:16:34;9.50;;;2.15;;
29206;SDS011;16247;50.840;4.382;2023-09-19T02:19:01;13.30;;;2.60;;
29206;SDS011;16247;50.840;4.382;2023-09-19T02:21:31;8.68;;;2.22;;
29206;SDS011;16247;50.840;4.382;2023-09-19T02:23:58;15.35;;;2.75;;
29206;SDS011;16247;50.840;4.382;2023-09-19T02:26:24;9.77;;;2.30;;
29206;SDS011;16247;50.840;4.382;2023-09-19T02:28:50;13.75;;;1.98;;
29206;SDS011;16247;50.840;4.382;2023-09-19T02:33:52;15.93;;;2.30;;
29206;SDS011;16247;50.840;4.382;2023-09-19T02:36:18;17.60;;;3.00;;
29206;SDS011;16247;50.840;4.382;2023-09-19T02:38:45;17.30;;;2.85;;
29206;SDS011;16247;50.840;4.382;2023-09-19T02:41:12;11.55;;;2.20;;
29206;SDS011;16247;50.840;4.382;2023-09-19T02:43:41;16.25;;;2.97;;
29206;SDS011;16247;50.840;4.382;2023-09-19T02:46:09;12.88;;;2.60;;
29206;SDS011;16247;50.840;4.382;2023-09-19T02:48:36;15.57;;;3.13;;
29206;SDS011;16247;50.840;4.382;2023-09-19T02:51:02;13.95;;;3.15;;
29206;SDS011;16247;50.840;4.382;2023-09-19T02:53:28;16.05;;;2.58;;
29206;SDS011;16247;50.840;4.382;2023-09-19T02:58:22;16.35;;;2.83;;
29206;SDS011;16247;50.840;4.382;2023-09-19T03:00:50;17.30;;;2.83;;
29206;SDS011;16247;50.840;4.382;2023-09-19T03:03:17;13.50;;;2.25;;
29206;SDS011;16247;50.840;4.382;2023-09-19T03:05:44;14.45;;;2.40;;
29206;SDS011;16247;50.840;4.382;2023-09-19T03:10:42;12.90;;;3.42;;
29206;SDS011;16247;50.840;4.382;2023-09-19T03:13:11;13.98;;;3.22;;
29206;SDS011;16247;50.840;4.382;2023-09-19T03:15:43;14.00;;;2.92;;
29206;SDS011;16247;50.840;4.382;2023-09-19T03:18:11;10.25;;;2.55;;
29206;SDS011;16247;50.840;4.382;2023-09-19T03:20:40;13.20;;;2.85;;
29206;SDS011;16247;50.840;4.382;2023-09-19T03:23:06;10.85;;;2.30;;
29206;SDS011;16247;50.840;4.382;2023-09-19T03:25:39;11.23;;;2.22;;
29206;SDS011;16247;50.840;4.382;2023-09-19T03:28:06;14.07;;;2.30;;
29206;SDS011;16247;50.840;4.382;2023-09-19T03:30:32;8.53;;;2.80;;
29206;SDS011;16247;50.840;4.382;2023-09-19T03:33:01;12.20;;;2.85;;
29206;SDS011;16247;50.840;4.382;2023-09-19T03:35:28;17.73;;;2.50;;
29206;SDS011;16247;50.840;4.382;2023-09-19T03:37:56;11.13;;;2.75;;
29206;SDS011;16247;50.840;4.382;2023-09-19T03:42:48;10.45;;;2.45;;
29206;SDS011;16247;50.840;4.382;2023-09-19T03:45:19;11.70;;;2.80;;
29206;SDS011;16247;50.840;4.382;2023-09-19T03:50:49;8.48;;;1.90;;
29206;SDS011;16247;50.840;4.382;2023-09-19T03:53:17;10.43;;;2.45;;
29206;SDS011;16247;50.840;4.382;2023-09-19T03:55:44;11.57;;;2.50;;
29206;SDS011;16247;50.840;4.382;2023-09-19T03:58:11;14.57;;;2.47;;
29206;SDS011;16247;50.840;4.382;2023-09-19T04:00:37;13.98;;;2.75;;
29206;SDS011;16247;50.840;4.382;2023-09-19T04:03:03;13.15;;;2.25;;
29206;SDS011;16247;50.840;4.382;2023-09-19T04:05:31;16.60;;;2.15;;
29206;SDS011;16247;50.840;4.382;2023-09-19T04:07:58;9.93;;;2.15;;
29206;SDS011;16247;50.840;4.382;2023-09-19T04:10:25;11.95;;;2.55;;
29206;SDS011;16247;50.840;4.382;2023-09-19T04:12:53;8.48;;;1.60;;
29206;SDS011;16247;50.840;4.382;2023-09-19T04:15:20;11.95;;;2.83;;
29206;SDS011;16247;50.840;4.382;2023-09-19T04:17:49;12.27;;;2.50;;
29206;SDS011;16247;50.840;4.382;2023-09-19T04:20:16;11.23;;;2.83;;
29206;SDS011;16247;50.840;4.382;2023-09-19T04:22:43;9.85;;;2.47;;
29206;SDS011;16247;50.840;4.382;2023-09-19T04:25:12;14.20;;;2.67;;
29206;SDS011;16247;50.840;4.382;2023-09-19T04:27:38;11.20;;;2.08;;
29206;SDS011;16247;50.840;4.382;2023-09-19T04:30:04;12.38;;;2.47;;
29206;SDS011;16247;50.840;4.382;2023-09-19T04:32:36;7.45;;;1.80;;
29206;SDS011;16247;50.840;4.382;2023-09-19T04:37:36;12.25;;;2.15;;
29206;SDS011;16247;50.840;4.382;2023-09-19T04:42:40;11.23;;;2.53;;
29206;SDS011;16247;50.840;4.382;2023-09-19T04:45:16;15.77;;;3.10;;
29206;SDS011;16247;50.840;4.382;2023-09-19T04:47:51;11.00;;;3.22;;
29206;SDS011;16247;50.840;4.382;2023-09-19T04:50:34;10.55;;;2.20;;
29206;SDS011;16247;50.840;4.382;2023-09-19T04:53:17;12.32;;;2.53;;
29206;SDS011;16247;50.840;4.382;2023-09-19T04:55:50;12.60;;;2.05;;
29206;SDS011;16247;50.840;4.382;2023-09-19T04:58:23;10.65;;;1.98;;
29206;SDS011;16247;50.840;4.382;2023-09-19T05:00:52;5.80;;;1.92;;
29206;SDS011;16247;50.840;4.382;2023-09-19T05:03:20;13.18;;;2.63;;
29206;SDS011;16247;50.840;4.382;2023-09-19T05:05:47;9.45;;;2.50;;
29206;SDS011;16247;50.840;4.382;2023-09-19T05:08:13;12.65;;;2.45;;
29206;SDS011;16247;50.840;4.382;2023-09-19T05:10:40;12.85;;;3.22;;
29206;SDS011;16247;50.840;4.382;2023-09-19T05:13:08;11.45;;;2.88;;
29206;SDS011;16247;50.840;4.382;2023-09-19T05:15:34;15.98;;;2.95;;
29206;SDS011;16247;50.840;4.382;2023-09-19T05:18:00;10.88;;;2.20;;
29206;SDS011;16247;50.840;4.382;2023-09-19T05:20:26;12.27;;;2.70;;
29206;SDS011;16247;50.840;4.382;2023-09-19T05:23:06;16.85;;;2.78;;
29206;SDS011;16247;50.840;4.382;2023-09-19T05:25:37;7.90;;;2.40;;
29206;SDS011;16247;50.840;4.382;2023-09-19T05:28:05;11.60;;;2.30;;
29206;SDS011;16247;50.840;4.382;2023-09-19T05:30:32;17.23;;;3.08;;
29206;SDS011;16247;50.840;4.382;2023-09-19T05:33:00;14.35;;;2.20;;
29206;SDS011;16247;50.840;4.382;2023-09-19T05:35:27;20.33;;;3.28;;
29206;SDS011;16247;50.840;4.382;2023-09-19T05:37:53;8.82;;;2.00;;
29206;SDS011;16247;50.840;4.382;2023-09-19T05:40:20;16.57;;;2.70;;
29206;SDS011;16247;50.840;4.382;2023-09-19T05:42:46;10.43;;;2.22;;
29206;SDS011;16247;50.840;4.382;2023-09-19T05:45:12;11.48;;;2.17;;
29206;SDS011;16247;50.840;4.382;2023-09-19T05:47:42;10.10;;;1.98;;
29206;SDS011;16247;50.840;4.382;2023-09-19T05:50:09;13.05;;;2.20;;
29206;SDS011;16247;50.840;4.382;2023-09-19T05:52:35;9.65;;;2.53;;
29206;SDS011;16247;50.840;4.382;2023-09-19T05:55:05;20.77;;;3.05;;
29206;SDS011;16247;50.840;4.382;2023-09-19T05:57:32;12.13;;;2.35;;
29206;SDS011;16247;50.840;4.382;2023-09-19T05:59:59;12.80;;;2.30;;
29206;SDS011;16247;50.840;4.382;2023-09-19T06:02:24;15.40;;;3.33;;
29206;SDS011;16247;50.840;4.382;2023-09-19T06:04:54;9.68;;;2.35;;
29206;SDS011;16247;50.840;4.382;2023-09-19T06:07:21;12.85;;;2.33;;
29206;SDS011;16247;50.840;4.382;2023-09-19T06:09:49;9.98;;;2.53;;
29206;SDS011;16247;50.840;4.382;2023-09-19T06:12:15;16.23;;;3.42;;
29206;SDS011;16247;50.840;4.382;2023-09-19T06:14:42;11.38;;;2.28;;
29206;SDS011;16247;50.840;4.382;2023-09-19T06:17:08;11.43;;;2.20;;
29206;SDS011;16247;50.840;4.382;2023-09-19T06:19:34;11.68;;;2.28;;
29206;SDS011;16247;50.840;4.382;2023-09-19T06:22:00;12.63;;;2.78;;
29206;SDS011;16247;50.840;4.382;2023-09-19T06:24:25;16.10;;;3.00;;
29206;SDS011;16247;50.840;4.382;2023-09-19T06:26:51;10.43;;;2.55;;
29206;SDS011;16247;50.840;4.382;2023-09-19T08:26:34;19.98;;;2.55;;
29206;SDS011;16247;50.840;4.382;2023-09-19T08:29:35;12.45;;;2.33;;
29206;SDS011;16247;50.840;4.382;2023-09-19T08:32:02;11.15;;;2.80;;
29206;SDS011;16247;50.840;4.382;2023-09-19T08:37:36;15.07;;;3.30;;
29206;SDS011;16247;50.840;4.382;2023-09-19T08:40:47;17.60;;;4.00;;
29206;SDS011;16247;50.840;4.382;2023-09-19T08:43:21;12.15;;;2.30;;
29206;SDS011;16247;50.840;4.382;2023-09-19T08:46:15;13.15;;;3.22;;
29206;SDS011;16247;50.840;4.382;2023-09-19T08:52:10;15.13;;;2.55;;
29206;SDS011;16247;50.840;4.382;2023-09-19T08:54:49;8.75;;;2.60;;
29206;SDS011;16247;50.840;4.382;2023-09-19T08:57:33;10.93;;;2.20;;
29206;SDS011;16247;50.840;4.382;2023-09-19T09:00:11;9.07;;;2.00;;
29206;SDS011;16247;50.840;4.382;2023-09-19T09:02:49;12.05;;;2.00;;
29206;SDS011;16247;50.840;4.382;2023-09-19T09:05:49;9.98;;;1.90;;
29206;SDS011;16247;50.840;4.382;2023-09-19T09:08:29;17.60;;;2.95;;
29206;SDS011;16247;50.840;4.382;2023-09-19T09:11:11;8.27;;;1.50;;
29206;SDS011;16247;50.840;4.382;2023-09-19T09:13:41;11.95;;;2.17;;
29206;SDS011;16247;50.840;4.382;2023-09-19T09:16:19;10.73;;;2.55;;
29206;SDS011;16247;50.840;4.382;2023-09-19T09:19:30;6.65;;;1.85;;
29206;SDS011;16247;50.840;4.382;2023-09-19T09:22:09;8.35;;;1.83;;
29206;SDS011;16247;50.840;4.382;2023-09-19T09:25:12;11.68;;;1.45;;
29206;SDS011;16247;50.840;4.382;2023-09-19T09:28:44;6.75;;;2.00;;
29206;SDS011;16247;50.840;4.382;2023-09-19T09:33:57;9.88;;;2.25;;
29206;SDS011;16247;50.840;4.382;2023-09-19T09:36:34;14.52;;;3.15;;
29206;SDS011;16247;50.840;4.382;2023-09-19T09:39:03;9.23;;;2.10;;
29206;SDS011;16247;50.840;4.382;2023-09-19T09:41:50;11.80;;;2.33;;
29206;SDS011;16247;50.840;4.382;2023-09-19T09:44:17;9.30;;;1.63;;
29206;SDS011;16247;50.840;4.382;2023-09-19T09:46:45;14.38;;;2.03;;
29206;SDS011;16247;50.840;4.382;2023-09-19T09:49:18;10.80;;;1.88;;
29206;SDS011;16247;50.840;4.382;2023-09-19T09:52:06;11.60;;;2.20;;
29206;SDS011;16247;50.840;4.382;2023-09-19T09:54:41;9.75;;;1.50;;
29206;SDS011;16247;50.840;4.382;2023-09-19T09:57:45;11.73;;;2.33;;
29206;SDS011;16247;50.840;4.382;2023-09-19T10:00:22;10.30;;;2.28;;
29206;SDS011;16247;50.840;4.382;2023-09-19T10:02:50;14.85;;;3.30;;
29206;SDS011;16247;50.840;4.382;2023-09-19T10:05:19;8.95;;;2.20;;
29206;SDS011;16247;50.840;4.382;2023-09-19T10:08:10;11.18;;;1.60;;
29206;SDS011;16247;50.840;4.382;2023-09-19T10:11:15;10.23;;;1.83;;
29206;SDS011;16247;50.840;4.382;2023-09-19T10:13:46;8.27;;;1.80;;
29206;SDS011;16247;50.840;4.382;2023-09-19T10:16:15;6.80;;;1.45;;
29206;SDS011;16247;50.840;4.382;2023-09-19T10:18:48;12.18;;;1.50;;
29206;SDS011;16247;50.840;4.382;2023-09-19T10:21:31;9.38;;;2.00;;
29206;SDS011;16247;50.840;4.382;2023-09-19T10:29:55;4.43;;;1.42;;
29206;SDS011;16247;50.840;4.382;2023-09-19T10:35:14;5.80;;;1.58;;
29206;SDS011;16247;50.840;4.382;2023-09-19T10:37:49;8.73;;;1.77;;
29206;SDS011;16247;50.840;4.382;2023-09-19T10:40:48;9.55;;;1.75;;
29206;SDS011;16247;50.840;4.382;2023-09-19T10:43:23;7.43;;;1.45;;
29206;SDS011;16247;50.840;4.382;2023-09-19T10:46:00;7.50;;;2.58;;
29206;SDS011;16247;50.840;4.382;2023-09-19T10:48:29;8.07;;;1.35;;
29206;SDS011;16247;50.840;4.382;2023-09-19T10:51:07;9.00;;;1.55;;
29206;SDS011;16247;50.840;4.382;2023-09-19T10:53:50;6.30;;;1.42;;
29206;SDS011;16247;50.840;4.382;2023-09-19T10:56:34;12.70;;;1.70;;
29206;SDS011;16247;50.840;4.382;2023-09-19T10:59:17;9.32;;;1.58;;
29206;SDS011;16247;50.840;4.382;2023-09-19T11:04:35;5.82;;;1.20;;
29206;SDS011;16247;50.840;4.382;2023-09-19T11:07:17;6.25;;;1.05;;
29206;SDS011;16247;50.840;4.382;2023-09-19T11:14:58;2.38;;;0.77;;
29206;SDS011;16247;50.840;4.382;2023-09-19T11:17:31;6.63;;;1.05;;
29206;SDS011;16247;50.840;4.382;2023-09-19T11:31:40;4.88;;;1.17;;
29206;SDS011;16247;50.840;4.382;2023-09-19T11:42:43;4.00;;;1.15;;
29206;SDS011;16247;50.840;4.382;2023-09-19T11:48:32;2.70;;;1.20;;
29206;SDS011;16247;50.840;4.382;2023-09-19T11:50:59;3.60;;;1.00;;
29206;SDS011;16247;50.840;4.382;2023-09-19T11:53:33;4.80;;;1.00;;
29206;SDS011;16247;50.840;4.382;2023-09-19T11:56:06;5.30;;;1.52;;
29206;SDS011;16247;50.840;4.382;2023-09-19T11:58:37;6.60;;;1.25;;
29206;SDS011;16247;50.840;4.382;2023-09-19T12:01:04;5.45;;;1.00;;
29206;SDS011;16247;50.840;4.382;2023-09-19T12:03:45;3.08;;;0.95;;
29206;SDS011;16247;50.840;4.382;2023-09-19T12:06:24;7.55;;;1.00;;
29206;SDS011;16247;50.840;4.382;2023-09-19T12:08:52;5.18;;;0.88;;
29206;SDS011;16247;50.840;4.382;2023-09-19T12:11:30;3.13;;;1.00;;
29206;SDS011;16247;50.840;4.382;2023-09-19T12:14:01;3.10;;;1.20;;
29206;SDS011;16247;50.840;4.382;2023-09-19T12:16:29;7.43;;;1.27;;
29206;SDS011;16247;50.840;4.382;2023-09-19T12:19:17;4.38;;;1.10;;
29206;SDS011;16247;50.840;4.382;2023-09-19T12:22:03;4.93;;;0.90;;
29206;SDS011;16247;50.840;4.382;2023-09-19T12:24:34;3.95;;;0.77;;
29206;SDS011;16247;50.840;4.382;2023-09-19T12:27:13;7.13;;;1.25;;
29206;SDS011;16247;50.840;4.382;2023-09-19T12:29:47;6.97;;;1.48;;
29206;SDS011;16247;50.840;4.382;2023-09-19T12:32:14;4.40;;;1.52;;
29206;SDS011;16247;50.840;4.382;2023-09-19T15:56:05;7.57;;;1.30;;
29206;SDS011;16247;50.840;4.382;2023-09-19T16:01:33;7.95;;;1.73;;
29206;SDS011;16247;50.840;4.382;2023-09-19T16:04:07;3.88;;;1.42;;
29206;SDS011;16247;50.840;4.382;2023-09-19T16:11:49;5.65;;;1.90;;
29206;SDS011;16247;50.840;4.382;2023-09-19T16:14:24;8.63;;;2.70;;
29206;SDS011;16247;50.840;4.382;2023-09-19T16:16:53;7.53;;;1.60;;
29206;SDS011;16247;50.840;4.382;2023-09-19T16:19:28;5.88;;;1.42;;
29206;SDS011;16247;50.840;4.382;2023-09-19T16:22:07;6.82;;;1.52;;
29206;SDS011;16247;50.840;4.382;2023-09-19T16:25:04;5.82;;;1.50;;
29206;SDS011;16247;50.840;4.382;2023-09-19T16:27:32;6.25;;;1.73;;
29206;SDS011;16247;50.840;4.382;2023-09-19T16:30:01;7.30;;;1.38;;
29206;SDS011;16247;50.840;4.382;2023-09-19T16:32:30;6.38;;;1.50;;
29206;SDS011;16247;50.840;4.382;2023-09-19T16:37:33;8.15;;;1.60;;
29206;SDS011;16247;50.840;4.382;2023-09-19T16:40:02;7.53;;;1.90;;
29206;SDS011;16247;50.840;4.382;2023-09-19T16:42:37;3.35;;;1.05;;
29206;SDS011;16247;50.840;4.382;2023-09-19T16:45:28;7.97;;;2.03;;
29206;SDS011;16247;50.840;4.382;2023-09-19T16:48:11;5.47;;;1.80;;
29206;SDS011;16247;50.840;4.382;2023-09-19T16:50:37;3.78;;;1.67;;
29206;SDS011;16247;50.840;4.382;2023-09-19T16:53:36;6.75;;;1.33;;
29206;SDS011;16247;50.840;4.382;2023-09-19T16:56:13;7.40;;;1.48;;
29206;SDS011;16247;50.840;4.382;2023-09-19T16:58:49;5.03;;;1.50;;
29206;SDS011;16247;50.840;4.382;2023-09-19T17:03:49;5.32;;;1.30;;
29206;SDS011;16247;50.840;4.382;2023-09-19T17:08:56;7.00;;;1.33;;
29206;SDS011;16247;50.840;4.382;2023-09-19T17:12:04;3.80;;;1.05;;
29206;SDS011;16247;50.840;4.382;2023-09-19T17:15:03;3.78;;;1.30;;
29206;SDS011;16247;50.840;4.382;2023-09-19T17:17:30;6.07;;;1.70;;
29206;SDS011;16247;50.840;4.382;2023-09-19T18:50:43;7.50;;;2.13;;
29206;SDS011;16247;50.840;4.382;2023-09-19T18:53:12;5.18;;;2.13;;
29206;SDS011;16247;50.840;4.382;2023-09-19T18:55:39;5.75;;;2.40;;
29206;SDS011;16247;50.840;4.382;2023-09-19T18:58:06;7.40;;;2.15;;
29206;SDS011;16247;50.840;4.382;2023-09-19T19:00:33;9.63;;;1.92;;
